Time;durP1;ratioP1;P1;durP2;ratioP2;P2;SDS_P1;SDS_P2;PMS_P1;PMS_P2;Temp;Humidity;BMP_temperature;BMP_pressure;BME280_temperature;BME280_humidity;BME280_pressure;Samples;Min_cycle;Max_cycle;Signal;HPM_P1;HPM_P2
2022/05/19 00:02:25;;;;;;;3.72;1.95;;;;;;;;;;4994111;28;20030;-75
2022/05/19 00:04:52;;;;;;;4.75;1.98;;;;;;;;;;5021085;28;21277;-74
2022/05/19 00:07:18;;;;;;;6.10;2.30;;;;;;;;;;5015738;28;20057;-73
2022/05/19 00:09:44;;;;;;;4.00;2.22;;;;;;;;;;5012829;28;20473;-74
2022/05/19 00:12:21;;;;;;;6.35;1.92;;;;;;;;;;5005962;28;20038;-74
2022/05/19 00:14:47;;;;;;;3.33;2.30;;;;;;;;;;5007568;28;20026;-75
2022/05/19 00:17:13;;;;;;;7.68;2.40;;;;;;;;;;5012607;28;20105;-74
2022/05/19 00:19:39;;;;;;;7.55;2.03;;;;;;;;;;5000741;28;20025;-75
2022/05/19 00:22:06;;;;;;;3.67;1.90;;;;;;;;;;4997166;28;20077;-75
2022/05/19 00:24:32;;;;;;;6.90;2.10;;;;;;;;;;5024878;28;20022;-74
2022/05/19 00:26:58;;;;;;;4.85;2.30;;;;;;;;;;5007240;28;20528;-74
2022/05/19 00:29:25;;;;;;;3.60;1.55;;;;;;;;;;5009702;28;20498;-73
2022/05/19 00:31:52;;;;;;;5.30;1.83;;;;;;;;;;5012209;28;20369;-74
2022/05/19 00:34:18;;;;;;;5.57;2.25;;;;;;;;;;5016824;28;20026;-74
2022/05/19 00:36:44;;;;;;;3.92;2.22;;;;;;;;;;5011936;28;20045;-74
2022/05/19 00:39:11;;;;;;;3.97;2.85;;;;;;;;;;5010026;28;20396;-74
2022/05/19 00:41:44;;;;;;;3.72;1.75;;;;;;;;;;5011140;28;20034;-74
2022/05/19 00:44:11;;;;;;;7.45;2.92;;;;;;;;;;5008348;28;20042;-74
2022/05/19 00:46:45;;;;;;;4.93;1.90;;;;;;;;;;5006816;28;20499;-76
2022/05/19 00:49:14;;;;;;;4.60;2.30;;;;;;;;;;5005879;28;20037;-74
2022/05/19 00:51:43;;;;;;;5.35;2.28;;;;;;;;;;5009699;28;20080;-74
2022/05/19 00:54:12;;;;;;;7.18;2.15;;;;;;;;;;5010306;28;20029;-74
2022/05/19 00:56:44;;;;;;;3.85;1.85;;;;;;;;;;5011834;28;20034;-74
2022/05/19 00:59:15;;;;;;;2.10;1.80;;;;;;;;;;5015102;28;20365;-73
2022/05/19 01:01:43;;;;;;;4.68;1.83;;;;;;;;;;5013017;28;20029;-74
2022/05/19 01:04:09;;;;;;;3.35;1.75;;;;;;;;;;5021391;28;20081;-74
2022/05/19 01:06:36;;;;;;;2.30;1.70;;;;;;;;;;5013076;28;20030;-74
2022/05/19 01:09:05;;;;;;;2.78;2.22;;;;;;;;;;5019874;28;20053;-74
2022/05/19 01:11:31;;;;;;;4.30;2.50;;;;;;;;;;5015468;28;20081;-74
2022/05/19 01:13:58;;;;;;;5.82;2.22;;;;;;;;;;5018087;28;20030;-74
2022/05/19 01:16:24;;;;;;;2.88;2.08;;;;;;;;;;5003530;28;20088;-73
2022/05/19 01:18:50;;;;;;;3.42;1.85;;;;;;;;;;5015869;28;20416;-74
2022/05/19 01:21:17;;;;;;;4.45;1.52;;;;;;;;;;5011700;28;20109;-75
2022/05/19 01:24:02;;;;;;;4.78;1.60;;;;;;;;;;5012293;28;20107;-74
2022/05/19 01:26:28;;;;;;;9.80;2.20;;;;;;;;;;5015726;28;20025;-74
2022/05/19 01:28:55;;;;;;;2.20;1.70;;;;;;;;;;5014462;28;20037;-73
2022/05/19 01:31:28;;;;;;;6.40;1.90;;;;;;;;;;5013762;28;20380;-75
2022/05/19 01:33:54;;;;;;;3.90;1.63;;;;;;;;;;5012367;28;20384;-75
2022/05/19 01:36:20;;;;;;;1.73;1.52;;;;;;;;;;5015615;28;20034;-74
2022/05/19 01:38:48;;;;;;;4.05;1.88;;;;;;;;;;5014894;28;20525;-76
2022/05/19 01:41:19;;;;;;;5.38;2.10;;;;;;;;;;5013712;28;20029;-74
2022/05/19 01:44:09;;;;;;;5.43;1.92;;;;;;;;;;5019656;28;20065;-76
2022/05/19 01:46:36;;;;;;;5.65;2.08;;;;;;;;;;5009536;28;20034;-73
2022/05/19 01:49:06;;;;;;;4.88;1.70;;;;;;;;;;5014679;28;20653;-75
2022/05/19 01:51:35;;;;;;;4.57;1.85;;;;;;;;;;5007677;28;20031;-74
2022/05/19 01:54:01;;;;;;;4.95;2.30;;;;;;;;;;5007636;28;20057;-73
2022/05/19 01:56:40;;;;;;;4.68;2.08;;;;;;;;;;5024406;28;20041;-74
2022/05/19 01:59:10;;;;;;;3.63;1.80;;;;;;;;;;5028599;28;20045;-74
2022/05/19 02:01:36;;;;;;;6.00;2.55;;;;;;;;;;5012478;28;20061;-74
2022/05/19 02:04:07;;;;;;;3.53;1.70;;;;;;;;;;5011866;28;20014;-75
2022/05/19 02:06:42;;;;;;;6.35;2.25;;;;;;;;;;5012520;28;20028;-75
2022/05/19 02:09:20;;;;;;;3.92;2.03;;;;;;;;;;5015297;28;20172;-76
2022/05/19 02:11:49;;;;;;;4.60;1.80;;;;;;;;;;5017516;28;20029;-75
2022/05/19 02:14:19;;;;;;;5.30;2.13;;;;;;;;;;5020682;28;20025;-75
2022/05/19 02:16:45;;;;;;;4.50;1.80;;;;;;;;;;5015105;28;20049;-75
2022/05/19 02:19:12;;;;;;;5.25;1.90;;;;;;;;;;5013517;28;20357;-75
2022/05/19 02:21:39;;;;;;;1.92;1.73;;;;;;;;;;5014272;28;20399;-74
2022/05/19 02:24:06;;;;;;;7.15;1.83;;;;;;;;;;5013741;28;20460;-74
2022/05/19 02:26:33;;;;;;;8.48;2.47;;;;;;;;;;5014063;28;20037;-74
2022/05/19 02:29:01;;;;;;;5.45;2.08;;;;;;;;;;5011215;28;20030;-76
2022/05/19 02:31:27;;;;;;;5.18;2.10;;;;;;;;;;5027293;28;20116;-75
2022/05/19 02:33:53;;;;;;;3.78;1.80;;;;;;;;;;5018468;28;20518;-74
2022/05/19 02:36:20;;;;;;;7.45;1.92;;;;;;;;;;5012193;28;20034;-75
2022/05/19 02:38:46;;;;;;;3.95;1.85;;;;;;;;;;5014307;28;20072;-74
2022/05/19 02:41:12;;;;;;;5.32;2.67;;;;;;;;;;5020982;28;20495;-74
2022/05/19 02:43:38;;;;;;;5.75;2.45;;;;;;;;;;4996089;28;20514;-74
2022/05/19 02:46:04;;;;;;;9.23;2.00;;;;;;;;;;5016397;28;20034;-72
2022/05/19 02:48:32;;;;;;;4.18;2.22;;;;;;;;;;5022404;28;20048;-74
2022/05/19 02:50:59;;;;;;;7.32;2.00;;;;;;;;;;5016628;28;20036;-75
2022/05/19 02:53:25;;;;;;;6.95;3.10;;;;;;;;;;5017841;28;20352;-74
2022/05/19 02:55:51;;;;;;;6.28;2.10;;;;;;;;;;5015782;28;20037;-74
2022/05/19 02:58:18;;;;;;;6.38;2.30;;;;;;;;;;5013373;28;20026;-75
2022/05/19 03:00:45;;;;;;;5.20;2.58;;;;;;;;;;5021625;28;20018;-74
2022/05/19 03:03:11;;;;;;;5.00;1.90;;;;;;;;;;5017431;28;20063;-75
2022/05/19 03:05:39;;;;;;;5.63;2.22;;;;;;;;;;5010707;28;20510;-75
2022/05/19 03:08:06;;;;;;;5.85;2.17;;;;;;;;;;5023849;28;20056;-74
2022/05/19 03:10:32;;;;;;;9.20;2.55;;;;;;;;;;5019407;28;20074;-74
2022/05/19 03:12:58;;;;;;;5.82;2.40;;;;;;;;;;5023210;28;20431;-73
2022/05/19 03:15:25;;;;;;;4.68;2.25;;;;;;;;;;5011855;28;20141;-74
2022/05/19 03:17:51;;;;;;;5.80;2.20;;;;;;;;;;5011140;28;20295;-75
2022/05/19 03:20:17;;;;;;;7.22;1.92;;;;;;;;;;5014596;28;20076;-75
2022/05/19 03:22:43;;;;;;;6.60;2.55;;;;;;;;;;5014116;28;20024;-75
2022/05/19 03:25:10;;;;;;;8.05;3.00;;;;;;;;;;5012252;28;20014;-75
2022/05/19 03:27:37;;;;;;;4.35;1.90;;;;;;;;;;5017983;28;20025;-76
2022/05/19 03:30:04;;;;;;;4.28;2.13;;;;;;;;;;5004040;28;20453;-75
2022/05/19 03:32:30;;;;;;;9.13;2.28;;;;;;;;;;5013854;28;20040;-74
2022/05/19 03:34:56;;;;;;;5.25;2.30;;;;;;;;;;5008609;28;20488;-75
2022/05/19 03:37:22;;;;;;;8.35;2.38;;;;;;;;;;5014218;28;20037;-74
2022/05/19 03:39:48;;;;;;;3.17;1.88;;;;;;;;;;5013556;28;20026;-74
2022/05/19 03:42:14;;;;;;;5.43;2.17;;;;;;;;;;5013421;28;20038;-74
2022/05/19 03:44:40;;;;;;;6.03;2.30;;;;;;;;;;5014916;28;20518;-74
2022/05/19 03:47:07;;;;;;;7.35;2.55;;;;;;;;;;5022978;28;20384;-74
2022/05/19 03:49:33;;;;;;;9.95;2.78;;;;;;;;;;5011709;28;20090;-74
2022/05/19 03:52:00;;;;;;;7.70;3.67;;;;;;;;;;5011896;28;20026;-74
2022/05/19 03:54:27;;;;;;;6.55;2.67;;;;;;;;;;5013431;28;20057;-75
2022/05/19 03:56:53;;;;;;;6.75;2.05;;;;;;;;;;5015833;28;20076;-75
2022/05/19 03:59:19;;;;;;;6.60;2.38;;;;;;;;;;5016947;28;20033;-74
2022/05/19 04:01:45;;;;;;;6.00;2.10;;;;;;;;;;5017193;28;20069;-76
2022/05/19 04:04:11;;;;;;;8.73;2.55;;;;;;;;;;5010236;28;20040;-75
2022/05/19 04:06:37;;;;;;;5.20;2.10;;;;;;;;;;5013251;28;20042;-73
2022/05/19 04:09:04;;;;;;;7.47;2.45;;;;;;;;;;5010464;28;20551;-75
2022/05/19 04:11:30;;;;;;;6.10;2.22;;;;;;;;;;5006867;28;20088;-74
2022/05/19 04:13:56;;;;;;;5.00;2.63;;;;;;;;;;5010232;28;20038;-75
2022/05/19 04:16:22;;;;;;;8.30;2.35;;;;;;;;;;5008433;28;20021;-75
2022/05/19 04:18:48;;;;;;;9.55;2.63;;;;;;;;;;5011135;28;20034;-75
2022/05/19 04:21:15;;;;;;;6.47;2.67;;;;;;;;;;5011340;28;20503;-74
2022/05/19 04:23:41;;;;;;;4.90;2.25;;;;;;;;;;5017012;28;20033;-74
2022/05/19 04:26:07;;;;;;;7.22;2.00;;;;;;;;;;5017402;28;20038;-73
2022/05/19 04:28:33;;;;;;;3.60;1.98;;;;;;;;;;5018857;28;20655;-75
2022/05/19 04:31:00;;;;;;;6.65;2.28;;;;;;;;;;5017007;28;20025;-74
2022/05/19 04:33:26;;;;;;;6.13;2.33;;;;;;;;;;5010644;28;20022;-74
2022/05/19 04:35:52;;;;;;;8.68;2.20;;;;;;;;;;5008682;28;20061;-73
2022/05/19 04:38:19;;;;;;;7.07;2.38;;;;;;;;;;5017403;28;20046;-74
2022/05/19 04:40:50;;;;;;;10.25;3.10;;;;;;;;;;5009048;28;20101;-74
2022/05/19 04:43:22;;;;;;;7.55;2.88;;;;;;;;;;5014802;28;20050;-74
2022/05/19 04:45:49;;;;;;;7.03;2.20;;;;;;;;;;5008635;28;20018;-75
2022/05/19 04:48:15;;;;;;;5.40;2.35;;;;;;;;;;5017358;28;20110;-75
2022/05/19 04:50:41;;;;;;;4.15;2.50;;;;;;;;;;5015410;28;20067;-75
2022/05/19 04:53:08;;;;;;;5.03;2.22;;;;;;;;;;5013107;28;20040;-75
2022/05/19 04:55:35;;;;;;;3.67;2.10;;;;;;;;;;5015136;28;20049;-76
2022/05/19 04:58:02;;;;;;;5.75;2.40;;;;;;;;;;5007355;28;20046;-74
2022/05/19 05:00:28;;;;;;;7.78;3.22;;;;;;;;;;5017500;28;20022;-75
2022/05/19 05:02:54;;;;;;;3.00;2.15;;;;;;;;;;5016866;28;20109;-74
2022/05/19 05:05:21;;;;;;;6.55;2.40;;;;;;;;;;5009931;28;20022;-75
2022/05/19 05:07:47;;;;;;;5.47;2.40;;;;;;;;;;5011943;28;20510;-75
2022/05/19 05:10:14;;;;;;;3.20;2.22;;;;;;;;;;5007744;28;20083;-74
2022/05/19 05:12:40;;;;;;;5.63;2.88;;;;;;;;;;5007996;28;20060;-75
2022/05/19 05:15:06;;;;;;;7.28;2.45;;;;;;;;;;5004203;28;20110;-73
2022/05/19 05:17:32;;;;;;;5.43;2.33;;;;;;;;;;5009343;28;20201;-74
2022/05/19 05:19:58;;;;;;;8.48;2.40;;;;;;;;;;5010077;28;20022;-74
2022/05/19 05:22:25;;;;;;;5.72;2.50;;;;;;;;;;5013373;28;20041;-74
2022/05/19 05:24:51;;;;;;;9.07;2.22;;;;;;;;;;5009570;28;20037;-74
2022/05/19 05:27:17;;;;;;;7.22;2.50;;;;;;;;;;5008100;28;20392;-74
2022/05/19 05:29:43;;;;;;;7.78;3.15;;;;;;;;;;5007032;28;20041;-74
2022/05/19 05:32:09;;;;;;;6.97;2.67;;;;;;;;;;5009000;28;20030;-74
2022/05/19 05:34:35;;;;;;;11.57;3.28;;;;;;;;;;5009824;28;20034;-74
2022/05/19 05:37:03;;;;;;;7.10;3.38;;;;;;;;;;5011946;28;20026;-74
2022/05/19 05:39:30;;;;;;;6.10;2.20;;;;;;;;;;5005205;28;20026;-75
2022/05/19 05:41:56;;;;;;;4.55;2.30;;;;;;;;;;5001973;28;20515;-74
2022/05/19 05:44:22;;;;;;;11.55;2.53;;;;;;;;;;5000441;28;20034;-73
2022/05/19 05:46:48;;;;;;;4.70;2.00;;;;;;;;;;5006090;28;20388;-74
2022/05/19 05:49:14;;;;;;;15.35;3.08;;;;;;;;;;5006529;28;20127;-75
2022/05/19 05:51:40;;;;;;;5.20;2.05;;;;;;;;;;5010046;28;20122;-74
2022/05/19 05:54:06;;;;;;;8.48;2.47;;;;;;;;;;5012457;28;20034;-73
2022/05/19 05:56:33;;;;;;;6.80;2.60;;;;;;;;;;5011879;28;20383;-74
2022/05/19 05:58:59;;;;;;;10.27;3.80;;;;;;;;;;5012825;28;20029;-73
2022/05/19 06:01:25;;;;;;;10.82;3.08;;;;;;;;;;5014613;28;20026;-74
2022/05/19 06:03:51;;;;;;;4.57;2.20;;;;;;;;;;5010206;28;20506;-74
2022/05/19 06:06:18;;;;;;;8.70;3.00;;;;;;;;;;5009456;28;20044;-73
2022/05/19 06:08:44;;;;;;;3.30;2.05;;;;;;;;;;5010681;28;20558;-74
2022/05/19 06:11:10;;;;;;;5.03;3.58;;;;;;;;;;5006551;28;20045;-74
2022/05/19 06:13:36;;;;;;;6.50;2.40;;;;;;;;;;5014150;28;20037;-74
2022/05/19 06:16:03;;;;;;;6.63;3.33;;;;;;;;;;5008402;28;20070;-75
2022/05/19 06:18:29;;;;;;;6.50;2.45;;;;;;;;;;5009218;28;20056;-74
2022/05/19 06:20:55;;;;;;;7.00;2.45;;;;;;;;;;5004402;28;20040;-74
2022/05/19 06:23:21;;;;;;;7.38;2.20;;;;;;;;;;5000999;28;20038;-74
2022/05/19 06:25:47;;;;;;;9.55;2.45;;;;;;;;;;5008274;28;20029;-74
2022/05/19 06:28:14;;;;;;;7.80;2.28;;;;;;;;;;5017351;28;20030;-73
2022/05/19 06:30:40;;;;;;;5.03;2.40;;;;;;;;;;5009515;28;20034;-74
2022/05/19 06:33:07;;;;;;;14.35;3.13;;;;;;;;;;5002762;28;20030;-75
2022/05/19 06:35:34;;;;;;;7.72;2.60;;;;;;;;;;5012805;28;20156;-76
2022/05/19 06:38:00;;;;;;;10.07;2.28;;;;;;;;;;5014742;28;20422;-75
2022/05/19 06:40:27;;;;;;;7.43;2.47;;;;;;;;;;5013055;28;20079;-75
2022/05/19 06:42:53;;;;;;;6.80;2.55;;;;;;;;;;5013295;28;20381;-74
2022/05/19 06:45:22;;;;;;;7.70;2.38;;;;;;;;;;5000424;28;20531;-74
2022/05/19 06:47:48;;;;;;;7.82;2.08;;;;;;;;;;5007742;28;20076;-75
2022/05/19 06:50:14;;;;;;;6.47;2.60;;;;;;;;;;5027081;28;20037;-75
2022/05/19 06:52:48;;;;;;;8.82;2.13;;;;;;;;;;5011600;28;20022;-75
2022/05/19 06:55:15;;;;;;;3.70;2.20;;;;;;;;;;5009135;28;20042;-74
2022/05/19 06:57:41;;;;;;;8.43;2.60;;;;;;;;;;4992670;28;20027;-74
2022/05/19 07:00:08;;;;;;;5.28;2.30;;;;;;;;;;5006979;28;20502;-74
2022/05/19 07:02:35;;;;;;;13.23;3.28;;;;;;;;;;5025009;28;20049;-75
2022/05/19 07:05:01;;;;;;;6.47;2.45;;;;;;;;;;5007806;28;20032;-74
2022/05/19 07:07:27;;;;;;;6.63;2.33;;;;;;;;;;5008024;28;20037;-75
2022/05/19 07:09:53;;;;;;;8.57;2.88;;;;;;;;;;5008835;28;20034;-75
2022/05/19 07:12:23;;;;;;;8.65;3.10;;;;;;;;;;5009226;28;20030;-75
2022/05/19 07:14:50;;;;;;;10.00;2.53;;;;;;;;;;5007330;28;20057;-74
2022/05/19 07:17:17;;;;;;;10.65;2.92;;;;;;;;;;5009560;28;20087;-75
2022/05/19 07:22:28;;;;;;;7.05;2.28;;;;;;;;;;5014395;28;20084;-75
2022/05/19 07:24:54;;;;;;;10.20;2.33;;;;;;;;;;5011290;28;20025;-75
2022/05/19 07:27:20;;;;;;;4.63;2.35;;;;;;;;;;5018371;28;20061;-75
2022/05/19 07:29:47;;;;;;;5.20;2.67;;;;;;;;;;5010417;28;20440;-74
2022/05/19 07:32:13;;;;;;;7.32;2.63;;;;;;;;;;5013942;28;20132;-74
2022/05/19 07:34:39;;;;;;;7.55;2.35;;;;;;;;;;5011633;28;20026;-76
2022/05/19 07:37:06;;;;;;;4.57;2.40;;;;;;;;;;5017198;28;20475;-75
2022/05/19 07:39:32;;;;;;;4.75;2.25;;;;;;;;;;5024826;28;20095;-76
2022/05/19 07:41:58;;;;;;;6.93;2.67;;;;;;;;;;5013744;28;20049;-73
2022/05/19 07:44:25;;;;;;;6.22;2.30;;;;;;;;;;5005523;28;20096;-76
2022/05/19 07:46:52;;;;;;;7.82;3.70;;;;;;;;;;5005659;28;20038;-76
2022/05/19 07:49:18;;;;;;;4.97;2.60;;;;;;;;;;5002708;28;20063;-77
2022/05/19 07:51:45;;;;;;;7.55;2.90;;;;;;;;;;5005755;28;20116;-77
2022/05/19 07:54:11;;;;;;;5.57;2.35;;;;;;;;;;5006856;28;20043;-75
2022/05/19 07:56:38;;;;;;;10.75;2.85;;;;;;;;;;5004164;28;20468;-77
2022/05/19 07:59:04;;;;;;;7.47;2.70;;;;;;;;;;5013985;28;20041;-77
2022/05/19 08:01:31;;;;;;;6.82;2.00;;;;;;;;;;5005607;28;20029;-77
2022/05/19 08:04:00;;;;;;;12.50;2.63;;;;;;;;;;5009840;28;20025;-76
2022/05/19 08:06:28;;;;;;;6.50;2.42;;;;;;;;;;5008267;28;20022;-75
2022/05/19 08:08:54;;;;;;;6.00;2.30;;;;;;;;;;5001156;28;20041;-76
2022/05/19 08:11:22;;;;;;;8.55;2.60;;;;;;;;;;5012908;28;20369;-75
2022/05/19 08:16:38;;;;;;;5.50;2.92;;;;;;;;;;5006186;28;20041;-77
2022/05/19 08:19:04;;;;;;;9.27;2.15;;;;;;;;;;5013505;28;20041;-77
2022/05/19 08:21:33;;;;;;;10.82;2.50;;;;;;;;;;5013053;28;20083;-77
2022/05/19 08:23:59;;;;;;;9.63;2.72;;;;;;;;;;5016607;28;20160;-76
2022/05/19 08:26:25;;;;;;;8.93;2.65;;;;;;;;;;5008492;28;20034;-77
2022/05/19 08:28:52;;;;;;;6.75;2.80;;;;;;;;;;5004294;28;20085;-76
2022/05/19 08:31:22;;;;;;;7.28;2.00;;;;;;;;;;5011929;28;20065;-76
2022/05/19 08:33:49;;;;;;;7.95;2.95;;;;;;;;;;4994635;28;20057;-75
2022/05/19 08:36:15;;;;;;;4.80;2.78;;;;;;;;;;5010765;28;20507;-76
2022/05/19 08:38:42;;;;;;;7.32;2.58;;;;;;;;;;5011575;28;20117;-76
2022/05/19 08:41:11;;;;;;;6.40;2.22;;;;;;;;;;5012383;28;20026;-76
2022/05/19 08:43:40;;;;;;;4.95;2.38;;;;;;;;;;5010673;28;20539;-76
2022/05/19 08:46:07;;;;;;;7.05;2.30;;;;;;;;;;5006794;28;20492;-77
2022/05/19 08:48:35;;;;;;;6.75;3.35;;;;;;;;;;5006682;28;20030;-76
2022/05/19 08:51:05;;;;;;;7.93;2.08;;;;;;;;;;5005463;28;20026;-75
2022/05/19 08:53:34;;;;;;;5.15;2.22;;;;;;;;;;5009768;28;20400;-76
2022/05/19 08:56:09;;;;;;;7.80;3.67;;;;;;;;;;5009015;28;20565;-77
2022/05/19 08:58:35;;;;;;;7.78;2.47;;;;;;;;;;5007162;28;20045;-77
2022/05/19 09:01:04;;;;;;;5.03;2.22;;;;;;;;;;5011515;28;20077;-76
2022/05/19 09:03:38;;;;;;;6.05;2.17;;;;;;;;;;5003725;28;20060;-75
2022/05/19 09:06:04;;;;;;;5.75;2.35;;;;;;;;;;4997460;28;20064;-76
2022/05/19 09:08:30;;;;;;;6.72;2.53;;;;;;;;;;5007049;28;20031;-77
2022/05/19 09:11:05;;;;;;;4.72;2.40;;;;;;;;;;5016615;28;20026;-76
2022/05/19 09:13:31;;;;;;;8.55;2.30;;;;;;;;;;4999749;28;20034;-76
2022/05/19 09:15:58;;;;;;;6.13;2.88;;;;;;;;;;5008187;28;20026;-76
2022/05/19 09:18:32;;;;;;;5.93;2.25;;;;;;;;;;5005203;28;20044;-77
2022/05/19 09:21:00;;;;;;;8.88;2.20;;;;;;;;;;5014577;28;20023;-76
2022/05/19 09:23:27;;;;;;;4.85;2.17;;;;;;;;;;5013160;28;20101;-75
2022/05/19 09:25:58;;;;;;;4.57;2.50;;;;;;;;;;5003173;28;20025;-76
2022/05/19 09:28:24;;;;;;;7.63;2.20;;;;;;;;;;5011480;28;20101;-76
2022/05/19 09:30:55;;;;;;;2.80;2.20;;;;;;;;;;5011954;28;20511;-76
2022/05/19 09:33:22;;;;;;;6.03;2.28;;;;;;;;;;5016245;28;20026;-76
2022/05/19 09:35:51;;;;;;;5.03;2.20;;;;;;;;;;5012591;28;20045;-77
2022/05/19 09:38:37;;;;;;;10.60;2.70;;;;;;;;;;5004845;28;20030;-76
2022/05/19 09:41:24;;;;;;;2.90;1.90;;;;;;;;;;4999833;28;20498;-76
2022/05/19 09:43:52;;;;;;;5.55;1.90;;;;;;;;;;5012422;28;20049;-76
2022/05/19 09:46:18;;;;;;;6.07;2.40;;;;;;;;;;5004198;28;20034;-76
2022/05/19 09:48:47;;;;;;;6.53;2.13;;;;;;;;;;5010892;28;20037;-77
2022/05/19 09:51:16;;;;;;;6.20;2.47;;;;;;;;;;5005325;28;20555;-76
2022/05/19 09:53:48;;;;;;;7.50;2.55;;;;;;;;;;5015686;28;20644;-76
2022/05/19 09:56:16;;;;;;;5.43;2.45;;;;;;;;;;5011914;28;20021;-77
2022/05/19 09:58:44;;;;;;;7.22;2.30;;;;;;;;;;5015274;28;20514;-78
2022/05/19 10:01:33;;;;;;;7.95;3.22;;;;;;;;;;5012371;28;20034;-77
2022/05/19 10:04:01;;;;;;;8.43;2.65;;;;;;;;;;5006861;28;20018;-77
2022/05/19 10:06:39;;;;;;;7.38;2.75;;;;;;;;;;5016394;28;20417;-77
2022/05/19 10:09:14;;;;;;;9.65;2.25;;;;;;;;;;5009943;28;20021;-77
2022/05/19 10:11:54;;;;;;;6.43;2.45;;;;;;;;;;5003849;28;20026;-76
2022/05/19 10:14:31;;;;;;;4.88;2.38;;;;;;;;;;5003935;28;20057;-76
2022/05/19 10:17:00;;;;;;;3.35;2.08;;;;;;;;;;5003833;28;20472;-76
2022/05/19 10:19:45;;;;;;;4.00;2.00;;;;;;;;;;5003729;28;20032;-76
2022/05/19 10:22:50;;;;;;;5.40;2.33;;;;;;;;;;5024436;28;20061;-76
2022/05/19 10:25:19;;;;;;;6.00;2.10;;;;;;;;;;4988528;28;20031;-76
2022/05/19 10:31:04;;;;;;;4.70;2.40;;;;;;;;;;5017717;28;20193;-77
2022/05/19 10:33:45;;;;;;;5.63;2.10;;;;;;;;;;5000990;28;20026;-76
2022/05/19 10:36:11;;;;;;;5.63;2.30;;;;;;;;;;5011295;28;20292;-76
2022/05/19 10:38:45;;;;;;;15.45;3.35;;;;;;;;;;5003253;28;20032;-75
2022/05/19 10:41:20;;;;;;;4.38;2.10;;;;;;;;;;5020645;28;20398;-75
2022/05/19 10:43:46;;;;;;;3.47;1.90;;;;;;;;;;5010797;28;20038;-76
2022/05/19 10:46:15;;;;;;;5.22;1.90;;;;;;;;;;5006088;28;20174;-76
2022/05/19 10:49:00;;;;;;;5.63;2.30;;;;;;;;;;5006896;28;20117;-77
2022/05/19 10:51:26;;;;;;;5.68;2.30;;;;;;;;;;5023287;28;20026;-76
2022/05/19 10:53:59;;;;;;;5.03;2.05;;;;;;;;;;5007892;28;20496;-75
2022/05/19 10:56:25;;;;;;;4.82;2.42;;;;;;;;;;5013254;28;20650;-77
2022/05/19 10:59:10;;;;;;;5.38;2.03;;;;;;;;;;5022278;28;20026;-77
2022/05/19 11:01:59;;;;;;;6.65;2.30;;;;;;;;;;5014549;28;20022;-77
2022/05/19 11:04:42;;;;;;;4.63;2.05;;;;;;;;;;5014548;28;20072;-76
2022/05/19 11:07:18;;;;;;;4.85;2.03;;;;;;;;;;5012561;28;20025;-75
2022/05/19 11:09:53;;;;;;;11.55;4.28;;;;;;;;;;5004208;28;20060;-75
2022/05/19 11:12:23;;;;;;;8.18;2.28;;;;;;;;;;5010159;28;20026;-77
2022/05/19 11:14:52;;;;;;;6.25;2.00;;;;;;;;;;5011299;28;20037;-77
2022/05/19 11:17:21;;;;;;;5.13;2.10;;;;;;;;;;5009783;28;20439;-76
2022/05/19 11:19:54;;;;;;;6.50;1.90;;;;;;;;;;5013115;28;20018;-76
2022/05/19 11:22:25;;;;;;;3.60;2.15;;;;;;;;;;5013516;28;20022;-76
2022/05/19 11:28:13;;;;;;;6.30;2.83;;;;;;;;;;5004077;28;20036;-77
2022/05/19 11:30:46;;;;;;;5.43;2.63;;;;;;;;;;5014822;28;20017;-76
2022/05/19 11:33:15;;;;;;;4.95;2.28;;;;;;;;;;5014565;28;20026;-76
2022/05/19 11:35:44;;;;;;;4.45;1.80;;;;;;;;;;5011020;28;20060;-77
2022/05/19 11:38:13;;;;;;;5.35;2.47;;;;;;;;;;5030031;28;20122;-75
2022/05/19 11:40:42;;;;;;;4.47;1.92;;;;;;;;;;5011145;28;20033;-76
2022/05/19 11:43:24;;;;;;;5.30;2.20;;;;;;;;;;5006490;28;20726;-76
2022/05/19 11:45:58;;;;;;;8.65;2.88;;;;;;;;;;5009596;28;21266;-75
2022/05/19 11:57:10;;;;;;;3.38;1.88;;;;;;;;;;5002774;28;20097;-75
2022/05/19 11:59:38;;;;;;;2.70;1.98;;;;;;;;;;5013172;28;20048;-75
2022/05/19 12:02:05;;;;;;;3.97;2.08;;;;;;;;;;5004017;28;20084;-75
2022/05/19 12:04:32;;;;;;;7.78;3.35;;;;;;;;;;5009483;28;20037;-75
2022/05/19 12:07:04;;;;;;;4.50;2.35;;;;;;;;;;5006881;28;20030;-75
2022/05/19 12:09:30;;;;;;;5.43;2.00;;;;;;;;;;5007689;28;20101;-76
2022/05/19 12:11:58;;;;;;;5.68;2.50;;;;;;;;;;5011457;28;20486;-77
2022/05/19 12:14:24;;;;;;;3.10;1.92;;;;;;;;;;5012285;28;20034;-76
2022/05/19 12:16:52;;;;;;;3.45;2.00;;;;;;;;;;5020982;28;20032;-75
2022/05/19 12:19:40;;;;;;;6.07;2.80;;;;;;;;;;5007947;28;20129;-75
2022/05/19 12:22:18;;;;;;;5.65;2.35;;;;;;;;;;5013672;28;20104;-76
2022/05/19 12:25:11;;;;;;;3.20;2.13;;;;;;;;;;4997757;28;20030;-75
2022/05/19 12:27:37;;;;;;;4.10;2.47;;;;;;;;;;5000745;28;20022;-75
2022/05/19 12:33:11;;;;;;;5.45;2.20;;;;;;;;;;5011648;28;20061;-75
2022/05/19 12:35:38;;;;;;;4.32;2.10;;;;;;;;;;5009528;28;20036;-76
2022/05/19 12:38:06;;;;;;;4.90;2.08;;;;;;;;;;5017043;28;20029;-75
2022/05/19 12:40:53;;;;;;;3.10;2.25;;;;;;;;;;5003945;28;20116;-75
2022/05/19 12:43:24;;;;;;;6.57;2.00;;;;;;;;;;5009147;28;20046;-75
2022/05/19 12:45:51;;;;;;;4.85;2.10;;;;;;;;;;5009372;28;20026;-74
2022/05/19 12:48:21;;;;;;;4.03;2.08;;;;;;;;;;5010514;28;20514;-75
2022/05/19 12:50:47;;;;;;;5.90;2.30;;;;;;;;;;5006638;28;20022;-75
2022/05/19 12:53:23;;;;;;;6.50;2.70;;;;;;;;;;5002332;28;20018;-75
2022/05/19 12:55:51;;;;;;;4.28;2.55;;;;;;;;;;5007373;28;20381;-75
2022/05/19 12:58:33;;;;;;;6.43;2.47;;;;;;;;;;5008277;28;20018;-75
2022/05/19 13:01:08;;;;;;;3.15;2.13;;;;;;;;;;5011662;28;20076;-76
2022/05/19 13:03:35;;;;;;;4.00;2.00;;;;;;;;;;5011224;28;20480;-76
2022/05/19 13:06:05;;;;;;;4.63;2.10;;;;;;;;;;5014250;28;20075;-77
2022/05/19 13:08:39;;;;;;;3.22;2.15;;;;;;;;;;5006332;28;20539;-77
2022/05/19 13:11:10;;;;;;;4.18;1.70;;;;;;;;;;5008378;28;20128;-76
2022/05/19 13:13:44;;;;;;;5.45;2.20;;;;;;;;;;5006923;28;20506;-79
2022/05/19 13:16:27;;;;;;;5.80;2.00;;;;;;;;;;5011240;28;20034;-76
2022/05/19 13:18:54;;;;;;;3.05;1.70;;;;;;;;;;5013555;28;20022;-76
2022/05/19 13:21:20;;;;;;;4.10;2.60;;;;;;;;;;5011087;28;20024;-76
2022/05/19 13:23:47;;;;;;;6.28;2.15;;;;;;;;;;5024052;28;20030;-76
2022/05/19 13:26:17;;;;;;;2.90;2.25;;;;;;;;;;5010676;28;20061;-76
2022/05/19 13:31:48;;;;;;;4.82;2.40;;;;;;;;;;5020515;28;20125;-76
2022/05/19 13:34:16;;;;;;;10.43;2.35;;;;;;;;;;5015016;28;20066;-76
2022/05/19 13:36:42;;;;;;;3.50;1.98;;;;;;;;;;5014829;28;20064;-76
2022/05/19 13:39:15;;;;;;;6.00;2.83;;;;;;;;;;5014981;28;20060;-76
2022/05/19 13:41:51;;;;;;;3.05;1.95;;;;;;;;;;5008594;28;20029;-77
2022/05/19 13:44:28;;;;;;;5.32;2.35;;;;;;;;;;5013888;28;20038;-77
2022/05/19 13:46:54;;;;;;;6.38;2.00;;;;;;;;;;5015171;28;20021;-76
2022/05/19 13:49:22;;;;;;;5.80;2.20;;;;;;;;;;5014375;28;20037;-77
2022/05/19 13:51:52;;;;;;;3.67;1.98;;;;;;;;;;5015051;28;20022;-76
2022/05/19 13:54:30;;;;;;;5.85;1.90;;;;;;;;;;5017341;28;20070;-76
2022/05/19 13:57:04;;;;;;;6.28;2.10;;;;;;;;;;5009649;28;20420;-77
2022/05/19 13:59:31;;;;;;;5.23;2.13;;;;;;;;;;5002760;28;20060;-76
2022/05/19 14:02:06;;;;;;;3.65;2.65;;;;;;;;;;5012469;28;20114;-75
2022/05/19 14:04:32;;;;;;;;;;;;;;;;;;4999071;28;20227;-77
2022/05/19 14:06:58;;;;;;;7.28;2.20;;;;;;;;;;5010127;28;19910;-76
2022/05/19 14:09:28;;;;;;;4.03;1.92;;;;;;;;;;5009491;28;20037;-77
2022/05/19 14:12:20;;;;;;;4.13;2.35;;;;;;;;;;5010218;28;20133;-77
2022/05/19 14:14:52;;;;;;;5.05;2.00;;;;;;;;;;5003279;28;20100;-78
2022/05/19 14:17:19;;;;;;;4.43;2.20;;;;;;;;;;5006240;28;20030;-76
2022/05/19 14:19:45;;;;;;;4.63;2.33;;;;;;;;;;5011715;28;20388;-76
2022/05/19 14:22:18;;;;;;;8.68;2.17;;;;;;;;;;5006862;28;20097;-76
2022/05/19 14:24:48;;;;;;;6.45;2.00;;;;;;;;;;5015985;28;20114;-78
2022/05/19 14:27:16;;;;;;;4.22;2.00;;;;;;;;;;5010933;28;20040;-77
2022/05/19 14:29:43;;;;;;;3.40;1.83;;;;;;;;;;5004973;28;20517;-77
2022/05/19 14:32:23;;;;;;;5.47;2.15;;;;;;;;;;5013157;28;20440;-76
2022/05/19 14:34:49;;;;;;;6.85;2.25;;;;;;;;;;5012446;28;20026;-76
2022/05/19 14:37:17;;;;;;;6.63;1.80;;;;;;;;;;5008517;28;20045;-75
2022/05/19 14:39:46;;;;;;;6.43;2.33;;;;;;;;;;5004895;28;20073;-76
2022/05/19 14:45:01;;;;;;;2.38;1.70;;;;;;;;;;5014618;28;20037;-76
2022/05/19 14:47:33;;;;;;;4.35;2.17;;;;;;;;;;5009639;28;20101;-76
2022/05/19 14:50:00;;;;;;;4.63;2.15;;;;;;;;;;5009909;28;20503;-76
2022/05/19 14:52:32;;;;;;;5.55;2.28;;;;;;;;;;5007292;28;20048;-77
2022/05/19 14:55:00;;;;;;;7.05;2.10;;;;;;;;;;5007687;28;20030;-76
2022/05/19 14:57:28;;;;;;;3.13;1.70;;;;;;;;;;5006020;28;20045;-77
2022/05/19 14:59:56;;;;;;;4.55;1.83;;;;;;;;;;5009825;28;20508;-76
2022/05/19 15:02:23;;;;;;;3.75;1.80;;;;;;;;;;5007857;28;20396;-76
2022/05/19 15:04:50;;;;;;;4.70;2.00;;;;;;;;;;5008454;28;20033;-75
2022/05/19 15:07:32;;;;;;;7.97;2.17;;;;;;;;;;5007790;28;20073;-75
2022/05/19 15:09:58;;;;;;;4.78;1.70;;;;;;;;;;5009682;28;20033;-76
2022/05/19 15:12:24;;;;;;;5.47;2.35;;;;;;;;;;5008926;28;20063;-76
2022/05/19 15:14:50;;;;;;;3.70;2.20;;;;;;;;;;5004998;28;20033;-77
2022/05/19 15:17:17;;;;;;;6.88;2.20;;;;;;;;;;5005092;28;20046;-76
2022/05/19 15:19:47;;;;;;;4.43;1.90;;;;;;;;;;5007967;28;20037;-76
2022/05/19 15:22:13;;;;;;;4.38;2.22;;;;;;;;;;5009278;28;20384;-77
2022/05/19 15:24:52;;;;;;;7.95;2.47;;;;;;;;;;5011009;28;20499;-75